Alpine Heights, CA

11:17 PM PDT on August 20, 2014 (GMT -0700)
Alpine: Rancho Palo Verde | Change Station
CLOSE
Current Station
Personal Weather Station
Location: Alpine, CA
Elevation: 2015 ft
Nearby Weather Stations

Elev 2015 ft 32.81 °N, 116.76 °W | Updated 2 seconds ago

Clear
Clear
61.7 °F
Feels Like 61.7 °F
N
0.0
Wind Variable Wind from WNW
Gusts 0.0 mph

Today
High -- | Low -- °F
--% Chance of Precip.
Yesterday
High -- | Low -- °F
Precip. -- in
6:13 AM 7:26 PM
Waning Crescent, 16% visible
Pressure 29.95 in
Visibility 10.0 miles
Clouds Clear
Dew Point 59 °F
Humidity 90%
Rainfall 0.00 in
Snow Depth Not available.
UV 0 out of 12
Pollen 5.00 out of 12
Ozone Good
PM2.5 Good
Flu Activity Not available.
METAR KSEE 210555Z AUTO 30003KT 10SM CLR 20/16 A2995 RMK AO2

More Conditions Fewer Conditions

Pressure 29.95 in
Visibility 10.0 miles
Clouds Clear
Dew Point 59 °F
Humidity 90%
Rainfall 0.00 in
Snow Depth Not available.
UV 0 out of 12
Pollen 5.00 out of 12
Ozone Good
PM2.5 Good
Flu Activity Not available.
METAR KSEE 210555Z AUTO 30003KT 10SM CLR 20/16 A2995 RMK AO2

More Conditions Fewer Conditions

10-Day Weather Forecast

Almanac

Astronomy

Aug. 20, 2014 Rise Set
Actual Time 6:13 AM PDT 7:26 PM PDT
Civil Twilight 5:48 AM PDT 7:52 PM PDT
Nautical Twilight 5:17 AM PDT 8:22 PM PDT
Astronomical Twilight 4:45 AM PDT 8:54 PM PDT
Moon 2:03 AM PDT (8/20) 4:09 PM PDT (8/20)
Length of Visible Light 14h 04m
Length of Day
13h 12m
Tomorrow will be 1m 49s shorter.
Waning Crescent, 16% of the Moon is Illuminated
Aug 21
Waning Crescent
Aug 25
New
Sep 2
First Quarter
Sep 8
Full
Sep 15
Last Quarter

Community

WunderPhotos

Upload Photos

1,745,858 photos uploaded!

Nearby

Air Quality

  Air Quality AQ Index Pollutant
Yesterday Good
OZONE
Yesterday Good
PM2.5
Current Good
PM2.5
Current Good
OZONE
Wednesday Good
PM2.5
Wednesday Good
OZONE
Thursday Good
PM2.5
Thursday Good
OZONE

Snow Depth

Station Depth Elevation
Leavitt Lake 1 in 9400 ft
Leavitt Meadows 1 in 7200 ft
Summit Meadow 0 in 9122 ft
Monitor Pass 0 in 8350 ft
Forestdale Creek 0 in 8029 ft

Earthquake Activity

City Distance Mag. Time & Date
Malibu Beach, California 137 miles 3.4 10:03 AM PDT
2014-08-15
Yucca Valley, California 103 miles 3.8 8:57 PM PDT
2014-08-14
Alberto Oviedo Mota, Mexico 105 miles 2.8 3:03 PM PDT
2014-08-14
Salton City, California 51 miles 2.6 6:58 AM PDT
2014-08-14
Minimum magnitude displayed is 2.5.

Coastal Water Temperatures

Place Temperature
La Jolla, CA 63.0 °F
San Diego, CA 75.0 °F

Nearby Weather Stations